createdAt,value
2022-12-06T00:02:52.773Z,12.05
2022-12-06T00:07:55.817Z,10.45
2022-12-06T00:12:58.664Z,10.60
2022-12-06T00:18:02.733Z,9.98
2022-12-06T00:23:05.527Z,10.60
2022-12-06T00:28:08.384Z,11.05
2022-12-06T00:33:12.501Z,11.15
2022-12-06T00:38:15.250Z,11.18
2022-12-06T00:43:18.031Z,11.88
2022-12-06T00:48:22.399Z,11.25
2022-12-06T00:53:25.698Z,10.57
2022-12-06T00:58:29.014Z,10.45
2022-12-06T01:03:35.248Z,10.23
2022-12-06T01:08:38.884Z,11.57
2022-12-06T01:13:44.065Z,12.52
2022-12-06T01:18:48.485Z,12.55
2022-12-06T01:23:53.034Z,12.95
2022-12-06T01:28:56.406Z,11.13
2022-12-06T01:34:00.507Z,11.27
2022-12-06T01:39:06.914Z,11.73
2022-12-06T01:44:41.076Z,11.18
2022-12-06T01:49:50.678Z,10.43
2022-12-06T01:54:54.428Z,10.38
2022-12-06T01:59:57.521Z,11.02
2022-12-06T02:05:03.679Z,10.52
2022-12-06T02:10:07.876Z,10.07
2022-12-06T02:15:11.802Z,10.18
2022-12-06T02:20:26.427Z,10.68
2022-12-06T02:26:22.719Z,10.23
2022-12-06T02:31:29.875Z,10.18
2022-12-06T02:36:39.742Z,11.65
2022-12-06T02:41:48.935Z,10.10
2022-12-06T02:46:55.563Z,11.32
2022-12-06T02:51:58.719Z,10.20
2022-12-06T02:57:01.476Z,10.02
2022-12-06T03:02:11.644Z,9.70
2022-12-06T03:07:26.759Z,9.23
2022-12-06T03:12:34.395Z,9.95
2022-12-06T03:17:48.101Z,9.15
2022-12-06T03:22:55.537Z,10.20
2022-12-06T03:28:01.740Z,10.18
2022-12-06T03:33:06.666Z,9.80
2022-12-06T03:38:15.523Z,9.65
2022-12-06T03:43:18.906Z,8.45
2022-12-06T03:48:30.392Z,9.10
2022-12-06T03:53:33.568Z,9.30
2022-12-06T03:58:36.379Z,8.82
2022-12-06T04:03:40.573Z,8.90
2022-12-06T04:08:43.512Z,9.00
2022-12-06T04:13:46.423Z,8.48
2022-12-06T04:18:50.565Z,8.63
2022-12-06T04:23:53.640Z,8.77
2022-12-06T04:29:13.998Z,8.77
2022-12-06T04:34:36.094Z,8.50
2022-12-06T04:39:38.838Z,9.40
2022-12-06T04:44:41.830Z,8.10
2022-12-06T04:49:46.116Z,8.68
2022-12-06T04:54:49.001Z,8.55
2022-12-06T04:59:51.775Z,8.25
2022-12-06T05:04:55.897Z,7.82
2022-12-06T05:09:58.971Z,8.45
2022-12-06T05:15:01.837Z,9.25
2022-12-06T05:20:07.928Z,10.40
2022-12-06T05:25:11.248Z,9.20
2022-12-06T05:30:14.764Z,9.18
2022-12-06T05:35:19.318Z,11.07
2022-12-06T05:40:22.229Z,10.32
2022-12-06T05:45:25.053Z,10.02
2022-12-06T05:50:29.328Z,9.98
2022-12-06T05:55:34.059Z,11.43
2022-12-06T06:00:36.892Z,11.80
2022-12-06T06:05:46.424Z,10.27
2022-12-06T06:10:49.233Z,11.07
2022-12-06T06:15:52.180Z,11.13
2022-12-06T06:21:00.161Z,12.10
2022-12-06T06:26:07.844Z,11.23
2022-12-06T06:31:10.824Z,13.82
2022-12-06T06:36:15.045Z,13.10
2022-12-06T06:41:17.931Z,13.63
2022-12-06T06:46:20.809Z,13.77
2022-12-06T06:51:25.075Z,15.57
2022-12-06T06:56:27.892Z,15.73
2022-12-06T07:01:30.802Z,13.90
2022-12-06T07:06:34.972Z,15.13
2022-12-06T07:11:37.802Z,15.00
2022-12-06T07:16:40.710Z,14.23
2022-12-06T07:21:44.924Z,17.55
2022-12-06T07:26:47.698Z,15.25
2022-12-06T07:31:50.512Z,20.02
2022-12-06T07:36:54.632Z,22.15
2022-12-06T07:42:11.288Z,18.17
2022-12-06T07:47:24.920Z,6.22
2022-12-06T07:52:31.825Z,17.77
2022-12-06T07:57:40.028Z,16.35
2022-12-06T08:02:46.064Z,18.98
2022-12-06T08:07:50.312Z,18.35
2022-12-06T08:12:53.921Z,17.85
2022-12-06T08:17:56.693Z,15.73
2022-12-06T08:23:00.826Z,15.52
2022-12-06T08:28:03.719Z,14.10
2022-12-06T08:33:06.491Z,14.18
2022-12-06T08:38:10.683Z,13.65
2022-12-06T08:43:13.492Z,15.50
2022-12-06T08:48:16.280Z,14.13
2022-12-06T08:53:20.386Z,15.82
2022-12-06T08:58:23.194Z,15.32
2022-12-06T09:03:26.073Z,15.23
2022-12-06T09:08:30.216Z,15.20
2022-12-06T09:13:33.048Z,15.27
2022-12-06T09:18:35.907Z,14.65
2022-12-06T09:23:40.489Z,13.50
2022-12-06T09:28:49.561Z,13.00
2022-12-06T09:33:53.064Z,12.73
2022-12-06T09:39:03.138Z,14.38
2022-12-06T09:44:25.303Z,12.98
2022-12-06T09:49:31.089Z,12.52
2022-12-06T09:54:52.634Z,13.95
2022-12-06T10:00:10.636Z,13.32
2022-12-06T10:05:28.630Z,12.60
2022-12-06T10:10:44.180Z,13.45
2022-12-06T10:15:56.280Z,12.95
2022-12-06T10:21:12.188Z,13.38
2022-12-06T10:26:19.255Z,12.75
2022-12-06T10:31:24.593Z,12.77
2022-12-06T10:36:44.656Z,11.38
2022-12-06T10:41:57.133Z,11.55
2022-12-06T10:47:06.557Z,11.00
2022-12-06T10:52:33.718Z,11.20
2022-12-06T10:57:45.923Z,11.27
2022-12-06T11:02:57.379Z,10.05
2022-12-06T11:08:07.278Z,11.02
2022-12-06T11:13:21.568Z,11.10
2022-12-06T11:18:29.035Z,10.18
2022-12-06T11:23:40.223Z,9.50
2022-12-06T11:28:55.428Z,10.73
2022-12-06T11:34:00.153Z,9.02
2022-12-06T11:39:04.641Z,7.95
2022-12-06T11:44:15.064Z,8.38
2022-12-06T11:49:22.630Z,7.60
2022-12-06T11:54:29.931Z,8.05
2022-12-06T11:59:34.128Z,7.32
2022-12-06T12:04:40.539Z,7.13
2022-12-06T12:09:50.247Z,7.97
2022-12-06T12:14:58.399Z,8.13
2022-12-06T12:20:05.591Z,7.05
2022-12-06T12:25:24.762Z,7.53
2022-12-06T12:30:36.218Z,7.78
2022-12-06T12:35:41.791Z,8.70
2022-12-06T12:40:47.314Z,8.30
2022-12-06T12:46:17.831Z,10.13
2022-12-06T12:51:24.434Z,9.32
2022-12-06T12:56:27.664Z,9.90
2022-12-06T13:01:39.546Z,9.27
2022-12-06T13:06:49.159Z,10.13
2022-12-06T13:11:57.844Z,11.13
2022-12-06T13:17:08.247Z,9.20
2022-12-06T13:22:17.136Z,10.13
2022-12-06T13:27:24.002Z,10.13
2022-12-06T13:32:34.527Z,11.38
2022-12-06T13:37:43.216Z,10.77
2022-12-06T13:42:47.153Z,11.77
2022-12-06T13:47:52.115Z,9.88
2022-12-06T13:53:01.570Z,12.20
2022-12-06T13:58:37.438Z,12.23
2022-12-06T14:03:42.070Z,12.45
2022-12-06T14:08:46.859Z,12.05
2022-12-06T14:13:59.896Z,11.70
2022-12-06T14:19:15.539Z,12.57
2022-12-06T14:24:30.620Z,13.05
2022-12-06T14:29:33.444Z,11.55
2022-12-06T14:34:37.835Z,12.23
2022-12-06T14:39:40.765Z,11.45
2022-12-06T14:44:49.128Z,12.10
2022-12-06T14:50:13.072Z,11.65
2022-12-06T14:55:19.690Z,11.15
2022-12-06T15:00:27.396Z,11.10
2022-12-06T15:05:34.092Z,10.30
2022-12-06T15:10:36.879Z,11.65
2022-12-06T15:15:41.611Z,10.57
2022-12-06T15:20:45.791Z,10.95
2022-12-06T15:25:48.574Z,9.30
2022-12-06T15:30:51.981Z,10.63
2022-12-06T15:35:58.208Z,10.20
2022-12-06T15:41:01.022Z,10.27
2022-12-06T15:46:05.289Z,9.45
2022-12-06T15:51:20.171Z,9.30
2022-12-06T15:56:25.775Z,9.57
2022-12-06T16:01:32.564Z,9.43
2022-12-06T16:06:36.693Z,9.23
2022-12-06T16:11:39.667Z,9.05
2022-12-06T16:16:43.744Z,9.18
2022-12-06T16:21:58.578Z,8.48
2022-12-06T16:27:01.343Z,8.90
2022-12-06T16:32:04.276Z,8.75
2022-12-06T16:37:08.444Z,9.00
2022-12-06T16:42:11.200Z,8.23
2022-12-06T16:47:14.396Z,7.75
2022-12-06T16:52:18.624Z,9.90
2022-12-06T16:57:21.403Z,9.57
2022-12-06T17:02:27.844Z,11.00
2022-12-06T17:07:31.946Z,9.68
2022-12-06T17:12:34.731Z,10.55
2022-12-06T17:17:37.446Z,10.68
2022-12-06T17:22:42.199Z,12.02
2022-12-06T17:27:44.987Z,10.68
2022-12-06T17:32:48.650Z,10.55
2022-12-06T17:37:53.926Z,10.77
2022-12-06T17:43:02.743Z,10.05
2022-12-06T17:48:06.080Z,10.20
2022-12-06T17:53:10.809Z,10.68
2022-12-06T17:58:13.619Z,11.07
2022-12-06T18:03:16.472Z,11.98
2022-12-06T18:08:20.724Z,11.60
2022-12-06T18:13:24.663Z,11.93
2022-12-06T18:18:27.465Z,12.70
2022-12-06T18:23:31.597Z,12.38
2022-12-06T18:28:34.345Z,13.23
2022-12-06T18:33:38.582Z,13.90
2022-12-06T18:38:43.530Z,14.35
2022-12-06T18:43:46.904Z,14.02
2022-12-06T18:48:51.021Z,13.38
2022-12-06T18:53:57.734Z,12.88
2022-12-06T18:59:01.783Z,13.82
2022-12-06T19:04:06.366Z,13.10
2022-12-06T19:09:13.376Z,14.40
2022-12-06T19:14:17.017Z,13.35
2022-12-06T19:19:21.268Z,13.23
2022-12-06T19:24:28.939Z,17.95
2022-12-06T19:29:31.964Z,16.50
2022-12-06T19:34:34.745Z,16.65
2022-12-06T19:39:38.996Z,15.10
2022-12-06T19:44:41.944Z,14.32
2022-12-06T19:49:44.767Z,12.98
2022-12-06T19:54:48.960Z,13.60
2022-12-06T19:59:54.220Z,13.35
2022-12-06T20:04:56.954Z,13.80
2022-12-06T20:10:01.442Z,14.32
2022-12-06T20:15:04.972Z,13.40
2022-12-06T20:20:09.180Z,13.02
2022-12-06T20:25:13.327Z,13.77
2022-12-06T20:30:16.355Z,14.13
2022-12-06T20:35:19.242Z,15.25
2022-12-06T20:40:28.391Z,15.35
2022-12-06T20:45:34.132Z,14.80
2022-12-06T20:50:39.703Z,14.43
2022-12-06T20:55:43.847Z,16.13
2022-12-06T21:00:48.400Z,15.07
2022-12-06T21:05:58.960Z,16.45
2022-12-06T21:16:29.456Z,18.08
2022-12-06T21:21:34.350Z,16.90
2022-12-06T21:26:39.034Z,16.88
2022-12-06T21:31:41.831Z,14.05
2022-12-06T21:36:45.016Z,15.50
2022-12-06T21:41:49.935Z,15.38
2022-12-06T21:46:53.676Z,15.30
2022-12-06T21:52:03.137Z,16.67
2022-12-06T21:57:10.401Z,17.88
2022-12-06T22:02:13.593Z,16.80
2022-12-06T22:07:16.557Z,17.15
2022-12-06T22:12:20.802Z,16.90
2022-12-06T22:17:23.685Z,17.23
2022-12-06T22:22:26.555Z,18.05
2022-12-06T22:27:30.761Z,17.85
2022-12-06T22:32:34.403Z,16.20
2022-12-06T22:37:37.180Z,14.48
2022-12-06T22:42:41.332Z,14.32
2022-12-06T22:47:44.207Z,13.18
2022-12-06T22:52:46.969Z,12.18
2022-12-06T22:57:51.220Z,13.25
2022-12-06T23:02:54.048Z,13.95
2022-12-06T23:07:57.397Z,12.27
2022-12-06T23:13:01.679Z,13.45
2022-12-06T23:18:04.606Z,11.63
2022-12-06T23:23:07.396Z,11.25
2022-12-06T23:28:11.588Z,12.93
2022-12-06T23:33:17.044Z,13.70
2022-12-06T23:38:23.949Z,12.63
2022-12-06T23:43:28.073Z,13.70
2022-12-06T23:48:31.431Z,14.75
2022-12-06T23:53:35.610Z,15.75
2022-12-06T23:58:39.964Z,19.98
